createdAt,value
2017-03-27T00:00:17.609Z,0
2017-03-27T00:01:24.080Z,0
2017-03-27T00:02:32.252Z,0
2017-03-27T00:03:40.278Z,0
2017-03-27T00:04:48.526Z,0
2017-03-27T00:05:56.609Z,0
2017-03-27T00:07:04.576Z,0
2017-03-27T00:08:12.937Z,0
2017-03-27T00:09:21.196Z,0
2017-03-27T00:10:28.811Z,0
2017-03-27T00:11:36.906Z,0
2017-03-27T00:12:45.517Z,0
2017-03-27T00:13:54.333Z,0
2017-03-27T00:15:00.999Z,0
2017-03-27T00:16:09.088Z,0
2017-03-27T00:17:17.173Z,0
2017-03-27T00:18:25.265Z,0
2017-03-27T00:19:33.347Z,0
2017-03-27T00:20:41.441Z,0
2017-03-27T00:21:49.526Z,0
2017-03-27T00:22:57.613Z,0
2017-03-27T00:24:05.704Z,0
2017-03-27T00:25:13.794Z,0
2017-03-27T00:26:21.883Z,0
2017-03-27T00:27:29.965Z,0
2017-03-27T00:28:38.063Z,0
2017-03-27T00:29:46.154Z,0
2017-03-27T00:30:54.238Z,0
2017-03-27T00:32:02.322Z,0
2017-03-27T00:33:10.410Z,0
2017-03-27T00:34:18.507Z,0
2017-03-27T00:35:26.592Z,0
2017-03-27T00:36:34.682Z,0
2017-03-27T00:37:42.773Z,0
2017-03-27T00:38:50.855Z,0
2017-03-27T00:39:58.942Z,0
2017-03-27T00:41:07.024Z,0
2017-03-27T00:42:15.115Z,0
2017-03-27T00:43:23.199Z,0
2017-03-27T00:44:31.287Z,0
2017-03-27T00:45:39.376Z,0
2017-03-27T00:46:47.462Z,0
2017-03-27T00:47:55.552Z,0
2017-03-27T00:49:03.646Z,0
2017-03-27T00:50:11.734Z,0
2017-03-27T00:51:19.820Z,0
2017-03-27T00:52:27.904Z,0
2017-03-27T00:53:35.997Z,0
2017-03-27T00:54:44.082Z,0
2017-03-27T00:55:52.169Z,0
2017-03-27T00:57:00.261Z,0
2017-03-27T00:58:08.348Z,0
2017-03-27T00:59:16.434Z,0
2017-03-27T01:00:24.521Z,0
2017-03-27T01:01:32.641Z,0
2017-03-27T01:02:40.707Z,0
2017-03-27T01:03:48.794Z,0
2017-03-27T01:04:56.879Z,0
2017-03-27T01:06:04.965Z,0
2017-03-27T01:07:13.047Z,0
2017-03-27T01:08:21.135Z,0
2017-03-27T01:09:29.232Z,0
2017-03-27T01:10:37.318Z,0
2017-03-27T01:11:45.403Z,0
2017-03-27T01:12:53.490Z,0
2017-03-27T01:14:01.578Z,0
2017-03-27T01:15:09.663Z,0
2017-03-27T01:16:17.753Z,0
2017-03-27T01:17:25.843Z,0
2017-03-27T01:18:33.930Z,0
2017-03-27T01:19:42.014Z,0
2017-03-27T01:20:50.112Z,0
2017-03-27T01:21:58.198Z,0
2017-03-27T01:23:06.278Z,0
2017-03-27T01:24:14.364Z,0
2017-03-27T01:25:22.457Z,0
2017-03-27T01:26:30.543Z,0
2017-03-27T01:27:38.632Z,0
2017-03-27T01:28:46.718Z,0
2017-03-27T01:29:54.807Z,0
2017-03-27T01:31:02.891Z,0
2017-03-27T01:32:10.977Z,0
2017-03-27T01:33:19.073Z,0
2017-03-27T01:34:27.155Z,0
2017-03-27T01:35:35.238Z,0
2017-03-27T01:36:43.329Z,0
2017-03-27T01:37:51.416Z,0
2017-03-27T01:38:59.501Z,0
2017-03-27T01:40:07.583Z,0
2017-03-27T01:41:15.675Z,0
2017-03-27T01:42:23.762Z,0
2017-03-27T01:43:31.845Z,0
2017-03-27T01:44:39.935Z,0
2017-03-27T01:45:48.018Z,0
2017-03-27T01:46:56.104Z,0
2017-03-27T01:48:04.232Z,0
2017-03-27T01:49:12.283Z,0
2017-03-27T01:50:20.370Z,0
2017-03-27T01:51:28.451Z,0
2017-03-27T01:52:36.552Z,0
2017-03-27T01:53:44.636Z,0
2017-03-27T01:54:52.716Z,0
2017-03-27T01:56:00.798Z,0
2017-03-27T01:57:08.891Z,0
2017-03-27T01:58:16.974Z,0
2017-03-27T01:59:25.057Z,0
2017-03-27T02:00:33.151Z,0
2017-03-27T02:01:41.234Z,0
2017-03-27T02:02:49.319Z,0
2017-03-27T02:03:57.413Z,0
2017-03-27T02:05:05.541Z,0
2017-03-27T02:06:13.590Z,0
2017-03-27T02:07:21.672Z,0
2017-03-27T02:08:29.765Z,0
2017-03-27T02:09:37.850Z,0
2017-03-27T02:10:45.934Z,0
2017-03-27T02:11:54.022Z,0
2017-03-27T02:13:02.112Z,0
2017-03-27T02:14:10.199Z,0
2017-03-27T02:15:18.287Z,0
2017-03-27T02:16:26.371Z,0
2017-03-27T02:17:34.457Z,0
2017-03-27T02:18:42.542Z,0
2017-03-27T02:19:50.628Z,0
2017-03-27T02:20:58.720Z,0
2017-03-27T02:22:06.853Z,0
2017-03-27T02:23:14.891Z,0
2017-03-27T02:24:22.983Z,0
2017-03-27T02:25:31.065Z,0
2017-03-27T02:26:39.158Z,0
2017-03-27T02:27:47.245Z,0
2017-03-27T02:28:55.329Z,0
2017-03-27T02:30:03.414Z,0
2017-03-27T02:31:11.500Z,0
2017-03-27T02:32:19.590Z,0
2017-03-27T02:33:27.678Z,0
2017-03-27T02:34:35.763Z,0
2017-03-27T02:35:43.857Z,0
2017-03-27T02:36:51.938Z,0
2017-03-27T02:38:00.024Z,0
2017-03-27T02:39:08.111Z,0
2017-03-27T02:40:16.199Z,0
2017-03-27T02:41:24.283Z,0
2017-03-27T02:42:32.363Z,0
2017-03-27T02:43:40.456Z,0
2017-03-27T02:44:48.541Z,0
2017-03-27T02:45:56.623Z,0
2017-03-27T02:47:04.710Z,0
2017-03-27T02:48:12.797Z,0
2017-03-27T02:49:20.884Z,0
2017-03-27T02:50:28.971Z,0
2017-03-27T02:51:37.051Z,0
2017-03-27T02:52:45.147Z,0
2017-03-27T02:53:53.231Z,0
2017-03-27T02:55:01.317Z,0
2017-03-27T02:56:09.410Z,0
2017-03-27T02:57:17.495Z,0
2017-03-27T02:58:25.580Z,0
2017-03-27T02:59:33.673Z,0
2017-03-27T03:00:41.763Z,0
2017-03-27T03:01:49.847Z,0
2017-03-27T03:02:57.934Z,0
2017-03-27T03:04:06.020Z,0
2017-03-27T03:05:14.104Z,0
2017-03-27T03:06:22.186Z,0
2017-03-27T03:07:30.274Z,0
2017-03-27T03:08:38.360Z,0
2017-03-27T03:09:46.445Z,0
2017-03-27T03:10:54.534Z,0
2017-03-27T03:12:02.621Z,0
2017-03-27T03:13:10.710Z,0
2017-03-27T03:14:18.792Z,0
2017-03-27T03:15:26.887Z,0
2017-03-27T03:16:34.969Z,0
2017-03-27T03:17:43.050Z,0
2017-03-27T03:18:51.141Z,0
2017-03-27T03:19:59.225Z,0
2017-03-27T03:21:07.314Z,0
2017-03-27T03:22:15.399Z,0
2017-03-27T03:23:23.494Z,0
2017-03-27T03:24:31.582Z,0
2017-03-27T03:25:39.667Z,0
2017-03-27T03:26:47.757Z,0
2017-03-27T03:27:55.836Z,0
2017-03-27T03:29:03.922Z,0
2017-03-27T03:30:12.005Z,0
2017-03-27T03:31:20.093Z,0
2017-03-27T03:32:28.173Z,0
2017-03-27T03:33:36.259Z,0
2017-03-27T03:34:44.349Z,0
2017-03-27T03:35:52.436Z,0
2017-03-27T03:37:00.548Z,0
2017-03-27T03:38:08.608Z,0
2017-03-27T03:39:16.689Z,0
2017-03-27T03:40:24.771Z,0
2017-03-27T03:41:32.862Z,0
2017-03-27T03:42:40.952Z,0
2017-03-27T03:43:49.044Z,0
2017-03-27T03:44:57.127Z,0
2017-03-27T03:46:05.216Z,0
2017-03-27T03:47:13.300Z,0
2017-03-27T03:48:21.386Z,0
2017-03-27T03:49:29.477Z,0
2017-03-27T03:50:37.556Z,0
2017-03-27T03:51:45.653Z,0
2017-03-27T03:52:53.738Z,0
2017-03-27T03:54:01.823Z,0
2017-03-27T03:55:09.907Z,0
2017-03-27T03:56:17.989Z,0
2017-03-27T03:57:26.072Z,0
2017-03-27T03:58:34.158Z,0
2017-03-27T03:59:42.248Z,0
2017-03-27T04:00:50.331Z,0
2017-03-27T04:01:58.415Z,0
2017-03-27T04:03:06.508Z,0
2017-03-27T04:04:14.628Z,0
2017-03-27T04:05:22.676Z,0
2017-03-27T04:06:30.764Z,0
2017-03-27T04:07:38.848Z,0
2017-03-27T04:08:46.931Z,0
2017-03-27T04:09:55.049Z,0
2017-03-27T04:11:03.102Z,0
2017-03-27T04:12:11.200Z,0
2017-03-27T04:13:19.275Z,0
2017-03-27T04:14:27.367Z,0
2017-03-27T04:15:35.459Z,0
2017-03-27T04:16:43.537Z,0
2017-03-27T04:17:51.625Z,0
2017-03-27T04:18:59.705Z,0
2017-03-27T04:20:07.786Z,0
2017-03-27T04:21:15.872Z,0
2017-03-27T04:22:23.961Z,0
2017-03-27T04:23:32.046Z,0
2017-03-27T04:24:40.129Z,0
2017-03-27T04:25:48.215Z,0
2017-03-27T04:26:56.301Z,0
2017-03-27T04:28:04.391Z,0
2017-03-27T04:29:12.470Z,0
2017-03-27T04:30:20.557Z,0
2017-03-27T04:31:28.643Z,0
2017-03-27T04:32:36.725Z,0
2017-03-27T04:33:44.819Z,0
2017-03-27T04:34:52.899Z,0
2017-03-27T04:36:00.990Z,0
2017-03-27T04:37:09.064Z,0
2017-03-27T04:38:17.155Z,0
2017-03-27T04:39:25.243Z,0
2017-03-27T04:40:33.329Z,0
2017-03-27T04:41:41.416Z,0
2017-03-27T04:42:49.503Z,0
2017-03-27T04:43:57.584Z,0
2017-03-27T04:45:05.669Z,0
2017-03-27T04:46:13.759Z,0
2017-03-27T04:47:21.847Z,0
2017-03-27T04:48:29.928Z,0
2017-03-27T04:49:38.012Z,0
2017-03-27T04:50:46.104Z,0
2017-03-27T04:51:54.184Z,0
2017-03-27T04:53:02.665Z,0
2017-03-27T04:54:10.354Z,0
2017-03-27T04:55:18.435Z,0
2017-03-27T04:56:26.525Z,0
2017-03-27T04:57:34.613Z,0
2017-03-27T04:58:42.693Z,0
2017-03-27T04:59:50.778Z,0
2017-03-27T05:00:58.860Z,0
2017-03-27T05:02:06.949Z,0
2017-03-27T05:03:15.030Z,0
2017-03-27T05:04:23.120Z,0
2017-03-27T05:05:31.202Z,0
2017-03-27T05:06:39.285Z,0
2017-03-27T05:07:47.382Z,0
2017-03-27T05:08:55.456Z,0
2017-03-27T05:10:03.539Z,0
2017-03-27T05:11:11.624Z,4
2017-03-27T05:12:19.708Z,4
2017-03-27T05:13:27.797Z,4
2017-03-27T05:14:35.889Z,0
2017-03-27T05:15:44.455Z,0
2017-03-27T05:16:52.487Z,0
2017-03-27T05:18:00.181Z,0
2017-03-27T05:19:08.218Z,4
2017-03-27T05:20:16.303Z,4
2017-03-27T05:21:24.623Z,4
2017-03-27T05:22:32.471Z,0
2017-03-27T05:23:40.557Z,0
2017-03-27T05:24:48.738Z,4
2017-03-27T05:25:56.737Z,4
2017-03-27T05:27:04.825Z,4
2017-03-27T05:28:12.906Z,4
2017-03-27T05:29:20.997Z,4
2017-03-27T05:30:29.074Z,4
2017-03-27T05:31:37.159Z,4
2017-03-27T05:32:45.250Z,4
2017-03-27T05:33:53.331Z,4
2017-03-27T05:35:01.415Z,4
2017-03-27T05:36:09.502Z,8
2017-03-27T05:37:17.966Z,4
2017-03-27T05:38:25.678Z,4
2017-03-27T05:39:33.773Z,8
2017-03-27T05:40:41.858Z,8
2017-03-27T05:41:49.945Z,4
2017-03-27T05:42:58.031Z,8
2017-03-27T05:44:06.117Z,8
2017-03-27T05:45:14.206Z,4
2017-03-27T05:46:22.289Z,8
2017-03-27T05:47:30.371Z,8
2017-03-27T05:48:38.461Z,8
2017-03-27T05:49:46.544Z,8
2017-03-27T05:50:54.631Z,8
2017-03-27T05:52:02.904Z,8
2017-03-27T05:53:11.156Z,12
2017-03-27T05:54:19.356Z,16
2017-03-27T05:55:26.968Z,20
2017-03-27T05:56:35.060Z,24
2017-03-27T05:57:43.152Z,20
2017-03-27T05:58:51.235Z,16
2017-03-27T05:59:59.425Z,16
2017-03-27T06:01:07.562Z,16
2017-03-27T06:02:15.922Z,20
2017-03-27T06:03:23.574Z,20
2017-03-27T06:04:31.983Z,24
2017-03-27T06:05:39.796Z,20
2017-03-27T06:06:48.112Z,20
2017-03-27T06:07:55.915Z,20
2017-03-27T06:09:04.305Z,24
2017-03-27T06:10:12.103Z,28
2017-03-27T06:11:20.167Z,28
2017-03-27T06:12:28.255Z,32
2017-03-27T06:13:36.338Z,28
2017-03-27T06:14:44.422Z,32
2017-03-27T06:15:52.899Z,32
2017-03-27T06:17:01.061Z,36
2017-03-27T06:18:08.675Z,36
2017-03-27T06:19:16.758Z,36
2017-03-27T06:20:24.844Z,40
2017-03-27T06:21:32.929Z,40
2017-03-27T06:22:41.010Z,36
2017-03-27T06:23:49.105Z,36
2017-03-27T06:24:57.183Z,40
2017-03-27T06:26:05.265Z,48
2017-03-27T06:27:13.347Z,64
2017-03-27T06:28:21.433Z,68
2017-03-27T06:29:29.516Z,60
2017-03-27T06:30:37.598Z,64
2017-03-27T06:31:45.689Z,72
2017-03-27T06:32:53.771Z,84
2017-03-27T06:34:01.853Z,92
2017-03-27T06:35:09.950Z,92
2017-03-27T06:36:18.025Z,92
2017-03-27T06:37:26.111Z,92
2017-03-27T06:38:34.196Z,84
2017-03-27T06:39:42.282Z,80
2017-03-27T06:40:50.370Z,76
2017-03-27T06:41:58.455Z,68
2017-03-27T06:43:06.536Z,64
2017-03-27T06:44:14.624Z,64
2017-03-27T06:45:22.710Z,68
2017-03-27T06:46:30.795Z,68
2017-03-27T06:47:38.878Z,64
2017-03-27T06:48:46.963Z,64
2017-03-27T06:49:55.047Z,68
2017-03-27T06:51:03.132Z,76
2017-03-27T06:52:11.219Z,84
2017-03-27T06:53:19.338Z,80
2017-03-27T06:54:27.627Z,72
2017-03-27T06:55:35.476Z,64
2017-03-27T06:56:43.569Z,56
2017-03-27T06:57:51.643Z,48
2017-03-27T06:58:59.727Z,44
2017-03-27T07:00:07.813Z,44
2017-03-27T07:01:15.906Z,40
2017-03-27T07:02:23.981Z,36
2017-03-27T07:03:32.068Z,32
2017-03-27T07:04:40.155Z,28
2017-03-27T07:05:48.234Z,28
2017-03-27T07:06:56.325Z,28
2017-03-27T07:08:04.412Z,32
2017-03-27T07:09:12.492Z,32
2017-03-27T07:10:20.576Z,40
2017-03-27T07:11:28.665Z,48
2017-03-27T07:12:36.757Z,56
2017-03-27T07:13:44.835Z,68
2017-03-27T07:14:52.917Z,72
2017-03-27T07:16:01.012Z,76
2017-03-27T07:17:09.090Z,76
2017-03-27T07:18:17.172Z,72
2017-03-27T07:19:25.260Z,68
2017-03-27T07:20:33.342Z,60
2017-03-27T07:21:41.426Z,60
2017-03-27T07:22:49.514Z,52
2017-03-27T07:23:57.672Z,48
2017-03-27T07:25:05.685Z,40
2017-03-27T07:26:13.766Z,36
2017-03-27T07:27:21.853Z,36
2017-03-27T07:28:29.944Z,32
2017-03-27T07:29:38.266Z,36
2017-03-27T07:30:46.111Z,36
2017-03-27T07:31:54.194Z,40
2017-03-27T07:33:02.279Z,40
2017-03-27T07:34:10.363Z,36
2017-03-27T07:35:18.453Z,32
2017-03-27T07:36:26.538Z,32
2017-03-27T07:37:34.629Z,36
2017-03-27T07:38:42.711Z,32
2017-03-27T07:39:50.795Z,32
2017-03-27T07:40:58.877Z,36
2017-03-27T07:42:06.960Z,36
2017-03-27T07:43:15.048Z,36
2017-03-27T07:44:23.130Z,36
2017-03-27T07:45:31.226Z,44
2017-03-27T07:46:39.307Z,40
2017-03-27T07:47:47.392Z,44
2017-03-27T07:48:55.476Z,40
2017-03-27T07:50:03.564Z,40
2017-03-27T07:51:11.647Z,40
2017-03-27T07:52:19.730Z,44
2017-03-27T07:53:27.811Z,44
2017-03-27T07:54:35.899Z,48
2017-03-27T07:55:43.985Z,44
2017-03-27T07:56:52.065Z,44
2017-03-27T07:58:00.148Z,48
2017-03-27T07:59:08.235Z,48
2017-03-27T08:00:16.324Z,48
2017-03-27T08:01:24.401Z,48
2017-03-27T08:02:32.493Z,48
2017-03-27T08:03:40.575Z,44
2017-03-27T08:04:48.660Z,48
2017-03-27T08:05:56.747Z,48
2017-03-27T08:07:04.832Z,44
2017-03-27T08:08:12.912Z,44
2017-03-27T08:09:21.000Z,44
2017-03-27T08:10:29.127Z,44
2017-03-27T08:11:37.172Z,48
2017-03-27T08:12:45.257Z,44
2017-03-27T08:13:53.335Z,48
2017-03-27T08:15:01.420Z,48
2017-03-27T08:16:09.508Z,44
2017-03-27T08:17:17.589Z,48
2017-03-27T08:18:25.676Z,44
2017-03-27T08:19:33.760Z,44
2017-03-27T08:20:41.842Z,44
2017-03-27T08:21:49.930Z,44
2017-03-27T08:22:58.018Z,44
2017-03-27T08:24:06.104Z,44
2017-03-27T08:25:14.190Z,44
2017-03-27T08:26:22.270Z,44
2017-03-27T08:27:30.367Z,44
2017-03-27T08:28:38.434Z,44
2017-03-27T08:29:46.524Z,44
2017-03-27T08:30:54.609Z,44
2017-03-27T08:32:02.691Z,44
2017-03-27T08:33:10.780Z,44
2017-03-27T08:34:18.869Z,44
2017-03-27T08:35:26.958Z,44
2017-03-27T08:36:35.041Z,44
2017-03-27T08:37:43.127Z,44
2017-03-27T08:38:51.211Z,40
2017-03-27T08:39:59.301Z,44
2017-03-27T08:41:07.379Z,44
2017-03-27T08:42:15.467Z,44
2017-03-27T08:43:23.553Z,40
2017-03-27T08:44:31.691Z,40
2017-03-27T08:45:39.722Z,44
2017-03-27T08:46:47.807Z,44
2017-03-27T08:47:55.890Z,44
2017-03-27T08:49:03.970Z,40
2017-03-27T08:50:12.060Z,44
2017-03-27T08:51:20.143Z,40
2017-03-27T08:52:28.227Z,40
2017-03-27T08:53:36.313Z,40
2017-03-27T08:54:44.399Z,40
2017-03-27T08:55:52.481Z,44
2017-03-27T08:57:00.572Z,44
2017-03-27T08:58:08.654Z,44
2017-03-27T08:59:16.737Z,40
2017-03-27T09:00:24.819Z,44
2017-03-27T09:01:32.911Z,44
2017-03-27T09:02:40.989Z,44
2017-03-27T09:03:49.077Z,44
2017-03-27T09:04:57.157Z,44
2017-03-27T09:06:05.246Z,44
2017-03-27T09:07:13.327Z,44
2017-03-27T09:08:21.412Z,44
2017-03-27T09:09:29.502Z,44
2017-03-27T09:10:37.589Z,44
2017-03-27T09:11:45.667Z,44
2017-03-27T09:12:53.756Z,44
2017-03-27T09:14:01.840Z,48
2017-03-27T09:15:09.926Z,48
2017-03-27T09:16:18.006Z,44
2017-03-27T09:17:26.109Z,44
2017-03-27T09:18:34.188Z,48
2017-03-27T09:19:42.282Z,48
2017-03-27T09:20:50.362Z,48
2017-03-27T09:21:58.448Z,48
2017-03-27T09:23:06.533Z,48
2017-03-27T09:24:14.613Z,48
2017-03-27T09:25:22.703Z,44
2017-03-27T09:26:30.787Z,48
2017-03-27T09:27:38.871Z,48
2017-03-27T09:28:46.960Z,48
2017-03-27T09:29:55.043Z,48
2017-03-27T09:31:03.128Z,48
2017-03-27T09:32:11.215Z,48
2017-03-27T09:33:19.306Z,48
2017-03-27T09:34:27.393Z,52
2017-03-27T09:35:35.474Z,48
2017-03-27T09:36:43.566Z,48
2017-03-27T09:37:51.649Z,52
2017-03-27T09:38:59.737Z,52
2017-03-27T09:40:07.819Z,48
2017-03-27T09:41:15.907Z,48
2017-03-27T09:42:23.992Z,52
2017-03-27T09:43:32.076Z,52
2017-03-27T09:44:40.169Z,48
2017-03-27T09:45:48.254Z,52
2017-03-27T09:46:56.335Z,48
2017-03-27T09:48:04.426Z,52
2017-03-27T09:49:12.513Z,48
2017-03-27T09:50:20.598Z,52
2017-03-27T09:51:28.685Z,52
2017-03-27T09:52:36.768Z,52
2017-03-27T09:53:44.856Z,52
2017-03-27T09:54:52.939Z,52
2017-03-27T09:56:01.033Z,52
2017-03-27T09:57:09.113Z,48
2017-03-27T09:58:17.196Z,52
2017-03-27T09:59:25.279Z,52
2017-03-27T10:00:33.365Z,52
2017-03-27T10:01:41.453Z,52
2017-03-27T10:02:49.540Z,52
2017-03-27T10:03:57.626Z,52
2017-03-27T10:05:05.714Z,52
2017-03-27T10:06:13.800Z,52
2017-03-27T10:07:21.882Z,52
2017-03-27T10:08:29.975Z,52
2017-03-27T10:09:38.055Z,52
2017-03-27T10:10:46.135Z,56
2017-03-27T10:11:54.222Z,56
2017-03-27T10:13:02.307Z,56
2017-03-27T10:14:10.393Z,52
2017-03-27T10:15:18.478Z,52
2017-03-27T10:16:26.565Z,52
2017-03-27T10:17:34.651Z,56
2017-03-27T10:18:42.737Z,52
2017-03-27T10:19:50.822Z,52
2017-03-27T10:20:58.915Z,52
2017-03-27T10:22:06.999Z,52
2017-03-27T10:23:15.085Z,52
2017-03-27T10:24:23.173Z,52
2017-03-27T10:25:31.264Z,52
2017-03-27T10:26:39.349Z,52
2017-03-27T10:27:47.437Z,52
2017-03-27T10:28:55.526Z,52
2017-03-27T10:30:03.608Z,52
2017-03-27T10:31:11.692Z,52
2017-03-27T10:32:19.782Z,52
2017-03-27T10:33:27.869Z,52
2017-03-27T10:34:35.948Z,52
2017-03-27T10:35:44.041Z,48
2017-03-27T10:36:52.124Z,52
2017-03-27T10:38:00.212Z,52
2017-03-27T10:39:08.290Z,52
2017-03-27T10:40:16.379Z,52
2017-03-27T10:41:24.475Z,48
2017-03-27T10:42:32.559Z,48
2017-03-27T10:43:40.648Z,52
2017-03-27T10:44:48.735Z,52
2017-03-27T10:45:56.815Z,52
2017-03-27T10:47:04.901Z,48
2017-03-27T10:48:12.990Z,48
2017-03-27T10:49:21.076Z,52
2017-03-27T10:50:29.160Z,52
2017-03-27T10:51:37.245Z,52
2017-03-27T10:52:45.332Z,48
2017-03-27T10:53:53.412Z,48
2017-03-27T10:55:01.497Z,48
2017-03-27T10:56:09.591Z,52
2017-03-27T10:57:17.673Z,52
2017-03-27T10:58:25.756Z,48
2017-03-27T10:59:33.844Z,48
2017-03-27T11:00:41.926Z,48
2017-03-27T11:01:50.011Z,48
2017-03-27T11:02:58.095Z,52
2017-03-27T11:04:06.184Z,48
2017-03-27T11:05:14.271Z,48
2017-03-27T11:06:22.357Z,48
2017-03-27T11:07:30.449Z,48
2017-03-27T11:08:38.538Z,48
2017-03-27T11:09:46.620Z,48
2017-03-27T11:10:54.709Z,48
2017-03-27T11:12:02.799Z,48
2017-03-27T11:13:10.885Z,48
2017-03-27T11:14:18.964Z,48
2017-03-27T11:15:27.058Z,48
2017-03-27T11:16:35.140Z,48
2017-03-27T11:17:43.224Z,48
2017-03-27T11:18:51.308Z,44
2017-03-27T11:19:59.409Z,48
2017-03-27T11:21:07.493Z,48
2017-03-27T11:22:15.581Z,48
2017-03-27T11:23:23.671Z,48
2017-03-27T11:24:31.753Z,44
2017-03-27T11:25:39.841Z,48
2017-03-27T11:26:47.919Z,48
2017-03-27T11:27:56.009Z,48
2017-03-27T11:29:04.096Z,44
2017-03-27T11:30:12.230Z,44
2017-03-27T11:31:20.262Z,48
2017-03-27T11:32:28.350Z,48
2017-03-27T11:33:36.433Z,44
2017-03-27T11:34:44.521Z,44
2017-03-27T11:35:52.606Z,48
2017-03-27T11:37:00.691Z,44
2017-03-27T11:38:08.774Z,44
2017-03-27T11:39:16.861Z,44
2017-03-27T11:40:24.944Z,44
2017-03-27T11:41:33.027Z,44
2017-03-27T11:42:41.116Z,44
2017-03-27T11:43:49.203Z,48
2017-03-27T11:44:57.283Z,44
2017-03-27T11:46:05.375Z,44
2017-03-27T11:47:13.524Z,44
2017-03-27T11:48:21.553Z,44
2017-03-27T11:49:29.653Z,44
2017-03-27T11:50:37.733Z,44
2017-03-27T11:51:45.817Z,44
2017-03-27T11:52:53.911Z,44
2017-03-27T11:54:01.993Z,44
2017-03-27T11:55:10.076Z,40
2017-03-27T11:56:18.159Z,44
2017-03-27T11:57:26.244Z,44
2017-03-27T11:58:34.337Z,44
2017-03-27T11:59:42.434Z,44
2017-03-27T12:00:50.512Z,44
2017-03-27T12:01:58.600Z,40
2017-03-27T12:03:06.684Z,44
2017-03-27T12:04:14.835Z,44
2017-03-27T12:05:22.853Z,44
2017-03-27T12:06:30.944Z,44
2017-03-27T12:07:39.028Z,40
2017-03-27T12:08:47.118Z,44
2017-03-27T12:09:55.201Z,40
2017-03-27T12:11:03.293Z,40
2017-03-27T12:12:11.378Z,44
2017-03-27T12:13:19.457Z,44
2017-03-27T12:14:27.548Z,40
2017-03-27T12:15:35.633Z,40
2017-03-27T12:16:43.717Z,40
2017-03-27T12:17:51.802Z,44
2017-03-27T12:18:59.893Z,44
2017-03-27T12:20:07.971Z,40
2017-03-27T12:21:16.059Z,40
2017-03-27T12:22:24.146Z,40
2017-03-27T12:23:32.237Z,40
2017-03-27T12:24:40.319Z,40
2017-03-27T12:25:48.397Z,40
2017-03-27T12:26:56.486Z,40
2017-03-27T12:28:04.572Z,40
2017-03-27T12:29:12.652Z,44
2017-03-27T12:30:20.751Z,40
2017-03-27T12:31:28.832Z,40
2017-03-27T12:32:36.915Z,40
2017-03-27T12:33:45.025Z,40
2017-03-27T12:34:53.133Z,40
2017-03-27T12:36:01.238Z,40
2017-03-27T12:37:09.617Z,40
2017-03-27T12:38:17.491Z,40
2017-03-27T12:39:25.593Z,40
2017-03-27T12:40:33.715Z,40
2017-03-27T12:41:41.601Z,40
2017-03-27T12:42:49.793Z,40
2017-03-27T12:43:57.854Z,40
2017-03-27T12:45:05.900Z,40
2017-03-27T12:46:14.188Z,36
2017-03-27T12:47:22.100Z,36
2017-03-27T12:48:30.250Z,40
2017-03-27T12:49:38.244Z,40
2017-03-27T12:50:46.491Z,40
2017-03-27T12:51:54.482Z,36
2017-03-27T12:53:02.482Z,36
2017-03-27T12:54:10.585Z,40
2017-03-27T12:55:18.793Z,40
2017-03-27T12:56:26.762Z,36
2017-03-27T12:57:34.945Z,36
2017-03-27T12:58:43.146Z,36
2017-03-27T12:59:51.071Z,40
2017-03-27T13:00:59.095Z,40
2017-03-27T13:02:07.343Z,36
2017-03-27T13:03:15.289Z,36
2017-03-27T13:04:23.385Z,36
2017-03-27T13:05:31.537Z,40
2017-03-27T13:06:39.517Z,36
2017-03-27T13:07:47.634Z,36
2017-03-27T13:08:55.672Z,36
2017-03-27T13:10:03.902Z,36
2017-03-27T13:11:12.594Z,36
2017-03-27T13:12:20.000Z,36
2017-03-27T13:13:28.128Z,36
2017-03-27T13:14:36.149Z,40
2017-03-27T13:15:44.197Z,36
2017-03-27T13:16:52.483Z,36
2017-03-27T13:18:00.381Z,36
2017-03-27T13:19:08.582Z,36
2017-03-27T13:20:16.520Z,36
2017-03-27T13:21:24.864Z,36
2017-03-27T13:22:32.709Z,36
2017-03-27T13:23:41.006Z,36
2017-03-27T13:24:49.051Z,36
2017-03-27T13:25:57.041Z,36
2017-03-27T13:27:05.304Z,36
2017-03-27T13:28:13.268Z,36
2017-03-27T13:29:21.306Z,36
2017-03-27T13:30:29.534Z,36
2017-03-27T13:31:37.546Z,36
2017-03-27T13:32:45.714Z,36
2017-03-27T13:33:53.671Z,36
2017-03-27T13:35:01.766Z,36
2017-03-27T13:36:09.927Z,36
2017-03-27T13:37:18.038Z,36
2017-03-27T13:38:26.021Z,40
2017-03-27T13:39:33.997Z,40
2017-03-27T13:40:42.300Z,40
2017-03-27T13:41:50.273Z,40
2017-03-27T13:42:58.483Z,40
2017-03-27T13:44:06.484Z,40
2017-03-27T13:45:14.632Z,40
2017-03-27T13:46:22.708Z,40
2017-03-27T13:47:30.652Z,40
2017-03-27T13:48:38.652Z,40
2017-03-27T13:49:46.782Z,40
2017-03-27T13:50:55.012Z,40
2017-03-27T13:52:03.077Z,40
2017-03-27T13:53:11.183Z,44
2017-03-27T13:54:19.303Z,44
2017-03-27T13:55:27.358Z,44
2017-03-27T13:56:35.335Z,44
2017-03-27T13:57:43.475Z,44
2017-03-27T13:58:51.456Z,44
2017-03-27T13:59:59.690Z,44
2017-03-27T14:01:07.677Z,44
2017-03-27T14:02:15.719Z,44
2017-03-27T14:03:24.408Z,44
2017-03-27T14:04:31.895Z,44
2017-03-27T14:05:40.008Z,44
2017-03-27T14:06:48.341Z,44
2017-03-27T14:07:56.274Z,44
2017-03-27T14:09:04.442Z,40
2017-03-27T14:10:12.312Z,40
2017-03-27T14:11:20.352Z,40
2017-03-27T14:12:28.448Z,40
2017-03-27T14:13:36.530Z,40
2017-03-27T14:14:44.613Z,40
2017-03-27T14:15:52.693Z,40
2017-03-27T14:17:00.783Z,36
2017-03-27T14:18:08.870Z,40
2017-03-27T14:19:16.972Z,40
2017-03-27T14:20:25.043Z,40
2017-03-27T14:21:33.127Z,40
2017-03-27T14:22:41.207Z,36
2017-03-27T14:23:49.295Z,40
2017-03-27T14:24:57.382Z,40
2017-03-27T14:26:05.468Z,40
2017-03-27T14:27:13.551Z,40
2017-03-27T14:28:21.643Z,40
2017-03-27T14:29:29.718Z,40
2017-03-27T14:30:37.802Z,40
2017-03-27T14:31:45.887Z,44
2017-03-27T14:32:53.975Z,44
2017-03-27T14:34:02.061Z,44
2017-03-27T14:35:10.143Z,44
2017-03-27T14:36:18.231Z,44
2017-03-27T14:37:26.316Z,44
2017-03-27T14:38:34.400Z,48
2017-03-27T14:39:42.486Z,48
2017-03-27T14:40:50.573Z,48
2017-03-27T14:41:58.659Z,44
2017-03-27T14:43:06.740Z,44
2017-03-27T14:44:14.835Z,48
2017-03-27T14:45:22.915Z,44
2017-03-27T14:46:31.011Z,44
2017-03-27T14:47:39.089Z,44
2017-03-27T14:48:47.173Z,44
2017-03-27T14:49:55.259Z,48
2017-03-27T14:51:03.340Z,48
2017-03-27T14:52:11.428Z,48
2017-03-27T14:53:19.513Z,48
2017-03-27T14:54:27.598Z,48
2017-03-27T14:55:35.684Z,48
2017-03-27T14:56:43.769Z,44
2017-03-27T14:57:51.853Z,48
2017-03-27T14:58:59.938Z,44
2017-03-27T15:00:08.021Z,44
2017-03-27T15:01:16.109Z,44
2017-03-27T15:02:24.192Z,44
2017-03-27T15:03:32.275Z,44
2017-03-27T15:04:40.361Z,44
2017-03-27T15:05:48.445Z,40
2017-03-27T15:06:56.560Z,40
2017-03-27T15:08:04.620Z,40
2017-03-27T15:09:12.707Z,36
2017-03-27T15:10:20.784Z,36
2017-03-27T15:11:28.870Z,36
2017-03-27T15:12:36.956Z,32
2017-03-27T15:13:45.042Z,32
2017-03-27T15:14:53.121Z,32
2017-03-27T15:16:01.212Z,32
2017-03-27T15:17:09.298Z,28
2017-03-27T15:18:17.382Z,32
2017-03-27T15:19:25.485Z,28
2017-03-27T15:20:33.556Z,28
2017-03-27T15:21:41.640Z,28
2017-03-27T15:22:49.725Z,28
2017-03-27T15:23:57.820Z,24
2017-03-27T15:25:05.897Z,28
2017-03-27T15:26:13.982Z,24
2017-03-27T15:27:22.067Z,28
2017-03-27T15:28:30.151Z,24
2017-03-27T15:29:38.237Z,28
2017-03-27T15:30:46.319Z,24
2017-03-27T15:31:54.409Z,24
2017-03-27T15:33:02.489Z,24
2017-03-27T15:34:10.574Z,24
2017-03-27T15:35:18.665Z,24
2017-03-27T15:36:26.751Z,24
2017-03-27T15:37:34.835Z,24
2017-03-27T15:38:42.922Z,24
2017-03-27T15:39:51.005Z,24
2017-03-27T15:40:59.093Z,20
2017-03-27T15:42:07.171Z,24
2017-03-27T15:43:15.264Z,20
2017-03-27T15:44:23.347Z,20
2017-03-27T15:45:31.428Z,24
2017-03-27T15:46:39.518Z,20
2017-03-27T15:47:47.602Z,20
2017-03-27T15:48:55.686Z,20
2017-03-27T15:50:03.772Z,20
2017-03-27T15:51:11.857Z,20
2017-03-27T15:52:19.944Z,20
2017-03-27T15:53:28.030Z,20
2017-03-27T15:54:36.122Z,20
2017-03-27T15:55:44.206Z,20
2017-03-27T15:56:52.286Z,20
2017-03-27T15:58:00.372Z,20
2017-03-27T15:59:08.457Z,20
2017-03-27T16:00:16.542Z,20
2017-03-27T16:01:24.627Z,16
2017-03-27T16:02:32.722Z,20
2017-03-27T16:03:40.801Z,20
2017-03-27T16:04:48.889Z,20
2017-03-27T16:05:56.969Z,20
2017-03-27T16:07:05.057Z,16
2017-03-27T16:08:13.136Z,16
2017-03-27T16:09:21.223Z,20
2017-03-27T16:10:29.312Z,20
2017-03-27T16:11:37.399Z,20
2017-03-27T16:12:45.481Z,20
2017-03-27T16:13:53.564Z,16
2017-03-27T16:15:01.650Z,16
2017-03-27T16:16:09.734Z,20
2017-03-27T16:17:17.819Z,16
2017-03-27T16:18:25.913Z,16
2017-03-27T16:19:33.997Z,20
2017-03-27T16:20:42.088Z,16
2017-03-27T16:21:50.167Z,16
2017-03-27T16:22:58.256Z,16